createdAt,value
2017-11-18T00:00:51.782Z,4.01
2017-11-18T00:02:00.437Z,4.01
2017-11-18T00:03:09.173Z,4.01
2017-11-18T00:04:17.718Z,4.01
2017-11-18T00:05:26.377Z,4.01
2017-11-18T00:06:35.046Z,4.01
2017-11-18T00:07:43.814Z,4.01
2017-11-18T00:08:52.423Z,4.01
2017-11-18T00:10:00.986Z,4.01
2017-11-18T00:11:09.697Z,4.01
2017-11-18T00:12:18.319Z,4.01
2017-11-18T00:13:26.946Z,4.01
2017-11-18T00:14:35.775Z,4.01
2017-11-18T00:15:44.322Z,4.01
2017-11-18T00:16:52.946Z,4.01
2017-11-18T00:18:01.630Z,4.01
2017-11-18T00:19:10.313Z,4.01
2017-11-18T00:20:18.950Z,4.01
2017-11-18T00:21:28.084Z,4.01
2017-11-18T00:22:36.193Z,4.01
2017-11-18T00:23:44.953Z,4.01
2017-11-18T00:24:53.496Z,4.01
2017-11-18T00:26:02.785Z,4.01
2017-11-18T00:27:10.991Z,4.01
2017-11-18T00:28:19.591Z,4.01
2017-11-18T00:29:28.139Z,4.01
2017-11-18T00:30:36.838Z,4.01
2017-11-18T00:31:45.427Z,4.01
2017-11-18T00:32:54.058Z,4.01
2017-11-18T00:34:02.730Z,4.01
2017-11-18T00:35:11.376Z,4.01
2017-11-18T00:36:20.601Z,4.01
2017-11-18T00:37:28.698Z,4.01
2017-11-18T00:38:37.323Z,4.01
2017-11-18T00:39:46.017Z,4.01
2017-11-18T00:40:54.729Z,4.01
2017-11-18T00:42:03.308Z,4.01
2017-11-18T00:43:12.151Z,4.01
2017-11-18T00:44:20.596Z,4.01
2017-11-18T00:45:29.235Z,4.01
2017-11-18T00:46:37.977Z,4.01
2017-11-18T00:47:47.351Z,4.00
2017-11-18T00:48:55.206Z,4.01
2017-11-18T00:50:03.863Z,4.01
2017-11-18T00:51:12.488Z,4.01
2017-11-18T00:52:21.920Z,4.01
2017-11-18T00:53:30.345Z,4.01
2017-11-18T00:54:38.446Z,4.01
2017-11-18T00:55:47.122Z,4.01
2017-11-18T00:56:55.773Z,4.01
2017-11-18T00:58:04.488Z,4.01
2017-11-18T00:59:13.060Z,4.01
2017-11-18T01:00:21.722Z,4.01
2017-11-18T01:01:30.476Z,4.01
2017-11-18T01:02:39.037Z,4.01
2017-11-18T01:03:47.666Z,4.01
2017-11-18T01:04:56.915Z,4.01
2017-11-18T01:06:04.967Z,4.00
2017-11-18T01:07:13.664Z,4.01
2017-11-18T01:08:22.864Z,4.01
2017-11-18T01:09:30.919Z,4.01
2017-11-18T01:10:39.660Z,4.01
2017-11-18T01:11:48.221Z,4.00
2017-11-18T01:12:56.886Z,4.01
2017-11-18T01:14:05.515Z,4.00
2017-11-18T01:15:14.172Z,4.01
2017-11-18T01:16:22.832Z,4.00
2017-11-18T01:17:31.465Z,4.00
2017-11-18T01:18:40.331Z,4.00
2017-11-18T01:19:48.860Z,4.00
2017-11-18T01:20:57.420Z,4.00
2017-11-18T01:22:06.085Z,4.00
2017-11-18T01:23:14.804Z,4.01
2017-11-18T01:24:23.474Z,4.00
2017-11-18T01:25:32.021Z,4.00
2017-11-18T01:26:40.681Z,4.00
2017-11-18T01:27:49.352Z,4.00
2017-11-18T01:28:58.034Z,4.00
2017-11-18T01:30:07.234Z,4.00
2017-11-18T01:31:15.269Z,4.00
2017-11-18T01:32:23.969Z,4.00
2017-11-18T01:33:32.603Z,4.00
2017-11-18T01:34:41.287Z,4.00
2017-11-18T01:35:49.969Z,4.00
2017-11-18T01:36:58.511Z,4.01
2017-11-18T01:38:07.531Z,4.00
2017-11-18T01:39:15.834Z,4.00
2017-11-18T01:40:25.533Z,4.00
2017-11-18T01:41:33.105Z,4.00
2017-11-18T01:42:41.739Z,4.00
2017-11-18T01:43:50.647Z,4.00
2017-11-18T01:44:59.036Z,4.00
2017-11-18T01:46:07.759Z,4.00
2017-11-18T01:47:16.552Z,4.00
2017-11-18T01:48:24.961Z,4.00
2017-11-18T01:49:33.632Z,4.00
2017-11-18T01:50:42.239Z,4.00
2017-11-18T01:51:50.879Z,4.00
2017-11-18T01:52:59.507Z,4.00
2017-11-18T01:54:08.179Z,4.00
2017-11-18T01:55:16.785Z,4.00
2017-11-18T01:56:25.416Z,4.00
2017-11-18T01:57:34.055Z,4.00
2017-11-18T01:58:42.881Z,4.00
2017-11-18T01:59:51.386Z,4.00
2017-11-18T02:00:59.966Z,4.00
2017-11-18T02:02:08.620Z,4.00
2017-11-18T02:03:17.230Z,4.00
2017-11-18T02:04:25.867Z,4.00
2017-11-18T02:05:35.130Z,4.00
2017-11-18T02:06:43.226Z,4.00
2017-11-18T02:07:52.347Z,4.00
2017-11-18T02:09:00.354Z,4.00
2017-11-18T02:10:08.973Z,4.00
2017-11-18T02:11:17.676Z,4.00
2017-11-18T02:12:33.020Z,4.00
2017-11-18T02:13:43.409Z,4.00
2017-11-18T02:14:52.043Z,4.00
2017-11-18T02:16:00.630Z,4.00
2017-11-18T02:17:10.337Z,4.00
2017-11-18T02:18:17.946Z,4.00
2017-11-18T02:19:27.152Z,4.00
2017-11-18T02:20:35.168Z,4.00
2017-11-18T02:21:43.786Z,4.00
2017-11-18T02:22:52.453Z,4.00
2017-11-18T02:24:00.993Z,4.00
2017-11-18T02:25:09.562Z,4.00
2017-11-18T02:26:18.210Z,4.00
2017-11-18T02:27:26.889Z,4.00
2017-11-18T02:28:35.387Z,4.00
2017-11-18T02:29:44.122Z,4.00
2017-11-18T02:30:52.644Z,4.00
2017-11-18T02:32:01.325Z,4.00
2017-11-18T02:33:09.936Z,4.00
2017-11-18T02:34:18.432Z,4.00
2017-11-18T02:35:27.064Z,4.00
2017-11-18T02:36:36.203Z,4.00
2017-11-18T02:37:44.258Z,4.00
2017-11-18T02:38:52.871Z,4.00
2017-11-18T02:40:01.502Z,4.00
2017-11-18T02:41:10.196Z,4.00
2017-11-18T02:42:18.692Z,4.00
2017-11-18T02:43:27.301Z,4.00
2017-11-18T02:44:35.913Z,4.00
2017-11-18T02:45:44.586Z,4.00
2017-11-18T02:46:53.240Z,4.00
2017-11-18T02:48:01.735Z,4.00
2017-11-18T02:49:10.387Z,4.00
2017-11-18T02:50:19.194Z,4.00
2017-11-18T02:51:27.565Z,4.00
2017-11-18T02:52:36.154Z,4.00
2017-11-18T02:53:44.793Z,4.00
2017-11-18T02:54:53.391Z,4.00
2017-11-18T02:56:02.370Z,4.00
2017-11-18T02:57:10.591Z,4.00
2017-11-18T02:58:19.252Z,4.00
2017-11-18T02:59:27.867Z,4.00
2017-11-18T03:00:36.424Z,4.00
2017-11-18T03:01:45.155Z,4.00
2017-11-18T03:02:53.620Z,4.00
2017-11-18T03:04:02.371Z,4.00
2017-11-18T03:05:10.816Z,4.00
2017-11-18T03:06:19.670Z,4.00
2017-11-18T03:07:28.011Z,4.00
2017-11-18T03:08:36.708Z,4.00
2017-11-18T03:09:45.213Z,4.00
2017-11-18T03:10:53.799Z,4.00
2017-11-18T03:12:02.460Z,4.00
2017-11-18T03:13:10.971Z,4.00
2017-11-18T03:14:19.554Z,4.00
2017-11-18T03:15:28.152Z,4.00
2017-11-18T03:16:36.772Z,4.00
2017-11-18T03:17:45.331Z,4.00
2017-11-18T03:18:54.008Z,4.00
2017-11-18T03:20:02.516Z,4.00
2017-11-18T03:21:11.089Z,4.00
2017-11-18T03:22:19.806Z,4.00
2017-11-18T03:23:28.236Z,4.00
2017-11-18T03:24:36.846Z,4.00
2017-11-18T03:25:45.464Z,4.00
2017-11-18T03:26:53.991Z,4.00
2017-11-18T03:28:02.528Z,4.00
2017-11-18T03:29:11.258Z,4.00
2017-11-18T03:30:21.230Z,4.00
2017-11-18T03:31:29.071Z,4.00
2017-11-18T03:32:36.902Z,4.00
2017-11-18T03:33:45.512Z,4.00
2017-11-18T03:34:54.212Z,4.00
2017-11-18T03:36:02.702Z,4.00
2017-11-18T03:37:11.284Z,4.00
2017-11-18T03:38:19.713Z,4.00
2017-11-18T03:39:28.288Z,4.00
2017-11-18T03:40:36.885Z,4.00
2017-11-18T03:41:45.996Z,4.00
2017-11-18T03:42:54.002Z,4.00
2017-11-18T03:44:02.576Z,4.00
2017-11-18T03:45:11.140Z,4.00
2017-11-18T03:46:19.799Z,4.00
2017-11-18T03:47:28.567Z,4.00
2017-11-18T03:48:36.861Z,4.00
2017-11-18T03:49:45.431Z,4.00
2017-11-18T03:50:54.105Z,4.00
2017-11-18T03:52:02.660Z,4.00
2017-11-18T03:53:11.231Z,4.00
2017-11-18T03:54:19.718Z,4.00
2017-11-18T03:55:28.281Z,4.00
2017-11-18T03:56:36.832Z,4.00
2017-11-18T03:57:45.438Z,4.00
2017-11-18T03:58:53.987Z,4.00
2017-11-18T04:00:03.180Z,4.00
2017-11-18T04:01:11.131Z,4.00
2017-11-18T04:02:19.711Z,4.00
2017-11-18T04:03:28.260Z,4.00
2017-11-18T04:04:36.824Z,4.00
2017-11-18T04:05:46.017Z,4.00
2017-11-18T04:06:53.968Z,4.00
2017-11-18T04:08:02.569Z,4.00
2017-11-18T04:09:11.087Z,4.00
2017-11-18T04:10:19.665Z,4.00
2017-11-18T04:11:28.347Z,4.00
2017-11-18T04:12:37.323Z,4.00
2017-11-18T04:13:45.464Z,4.00
2017-11-18T04:14:54.408Z,4.00
2017-11-18T04:16:02.477Z,4.00
2017-11-18T04:17:11.039Z,4.00
2017-11-18T04:18:19.875Z,4.00
2017-11-18T04:19:28.300Z,4.00
2017-11-18T04:20:36.708Z,4.00
2017-11-18T04:21:45.269Z,4.00
2017-11-18T04:22:53.838Z,4.00
2017-11-18T04:24:02.530Z,4.00
2017-11-18T04:25:10.934Z,4.00
2017-11-18T04:26:19.478Z,4.00
2017-11-18T04:27:28.021Z,4.00
2017-11-18T04:28:36.594Z,4.00
2017-11-18T04:29:45.195Z,4.00
2017-11-18T04:30:53.677Z,4.00
2017-11-18T04:32:02.390Z,4.00
2017-11-18T04:33:11.346Z,4.00
2017-11-18T04:34:19.305Z,4.00
2017-11-18T04:35:27.934Z,4.00
2017-11-18T04:36:36.400Z,4.00
2017-11-18T04:37:44.946Z,4.00
2017-11-18T04:38:53.497Z,4.00
2017-11-18T04:40:02.032Z,4.00
2017-11-18T04:41:10.669Z,4.00
2017-11-18T04:42:19.115Z,4.00
2017-11-18T04:43:27.670Z,4.00
2017-11-18T04:44:36.379Z,4.00
2017-11-18T04:45:44.799Z,4.00
2017-11-18T04:46:53.284Z,4.00
2017-11-18T04:48:01.824Z,4.00
2017-11-18T04:49:10.376Z,4.00
2017-11-18T04:50:18.924Z,4.00
2017-11-18T04:51:27.414Z,4.00
2017-11-18T04:52:35.968Z,4.00
2017-11-18T04:53:44.810Z,4.00
2017-11-18T04:54:53.026Z,4.00
2017-11-18T04:56:01.735Z,4.00
2017-11-18T04:57:10.093Z,4.00
2017-11-18T04:58:18.645Z,4.00
2017-11-18T04:59:27.180Z,4.00
2017-11-18T05:00:35.692Z,4.00
2017-11-18T05:01:44.265Z,4.00
2017-11-18T05:02:52.765Z,4.00
2017-11-18T05:04:01.325Z,4.00
2017-11-18T05:05:09.836Z,4.00
2017-11-18T05:06:18.498Z,4.00
2017-11-18T05:07:26.905Z,4.00
2017-11-18T05:08:35.955Z,4.00
2017-11-18T05:09:44.060Z,4.00
2017-11-18T05:10:53.072Z,4.00
2017-11-18T05:12:01.043Z,4.00
2017-11-18T05:13:10.572Z,4.00
2017-11-18T05:14:18.474Z,4.00
2017-11-18T05:15:26.757Z,4.00
2017-11-18T05:16:35.170Z,4.00
2017-11-18T05:17:43.708Z,4.00
2017-11-18T05:18:52.889Z,4.00
2017-11-18T05:20:00.815Z,4.00
2017-11-18T05:21:09.417Z,4.00
2017-11-18T05:22:18.306Z,4.00
2017-11-18T05:23:26.398Z,4.00
2017-11-18T05:24:35.482Z,4.00
2017-11-18T05:25:43.546Z,4.00
2017-11-18T05:26:52.604Z,4.00
2017-11-18T05:28:00.570Z,4.00
2017-11-18T05:29:09.202Z,3.99
2017-11-18T05:30:17.706Z,4.00
2017-11-18T05:31:26.181Z,4.00
2017-11-18T05:32:34.702Z,4.00
2017-11-18T05:33:43.371Z,4.00
2017-11-18T05:34:51.828Z,4.00
2017-11-18T05:36:00.417Z,4.00
2017-11-18T05:37:09.520Z,4.00
2017-11-18T05:38:17.525Z,4.00
2017-11-18T05:39:26.040Z,4.00
2017-11-18T05:40:34.512Z,4.00
2017-11-18T05:41:43.049Z,4.00
2017-11-18T05:42:51.657Z,4.00
2017-11-18T05:44:00.193Z,4.00
2017-11-18T05:45:08.694Z,4.00
2017-11-18T05:46:17.280Z,4.00
2017-11-18T05:47:25.764Z,4.00
2017-11-18T05:48:34.395Z,4.00
2017-11-18T05:49:42.856Z,4.00
2017-11-18T05:50:51.521Z,4.00
2017-11-18T05:52:00.013Z,4.00
2017-11-18T05:53:08.620Z,4.00
2017-11-18T05:54:17.070Z,4.00
2017-11-18T05:55:25.889Z,4.00
2017-11-18T05:56:34.246Z,4.00
2017-11-18T05:57:42.753Z,4.00
2017-11-18T05:58:51.432Z,4.00
2017-11-18T05:59:59.870Z,4.00
2017-11-18T06:01:08.960Z,4.00
2017-11-18T06:02:17.157Z,4.00
2017-11-18T06:03:25.552Z,4.00
2017-11-18T06:04:34.112Z,4.00
2017-11-18T06:05:42.686Z,4.00
2017-11-18T06:06:51.899Z,3.99
2017-11-18T06:07:59.820Z,4.00
2017-11-18T06:09:08.500Z,4.00
2017-11-18T06:10:17.973Z,3.99
2017-11-18T06:11:25.543Z,4.00
2017-11-18T06:12:34.066Z,4.00
2017-11-18T06:13:43.367Z,3.99
2017-11-18T06:14:51.269Z,4.00
2017-11-18T06:15:59.793Z,4.00
2017-11-18T06:17:08.331Z,4.00
2017-11-18T06:18:16.891Z,4.00
2017-11-18T06:19:25.457Z,4.00
2017-11-18T06:20:34.363Z,3.99
2017-11-18T06:21:42.592Z,3.99
2017-11-18T06:22:51.224Z,4.00
2017-11-18T06:24:00.313Z,3.99
2017-11-18T06:25:08.279Z,3.99
2017-11-18T06:26:16.869Z,3.99
2017-11-18T06:27:25.525Z,3.99
2017-11-18T06:28:33.999Z,3.99
2017-11-18T06:29:42.545Z,4.00
2017-11-18T06:30:51.432Z,4.00
2017-11-18T06:31:59.689Z,4.00
2017-11-18T06:33:08.303Z,3.99
2017-11-18T06:34:16.788Z,3.99
2017-11-18T06:35:25.362Z,3.99
2017-11-18T06:36:33.940Z,4.00
2017-11-18T06:37:42.525Z,3.99
2017-11-18T06:38:51.032Z,3.99
2017-11-18T06:39:59.587Z,4.00
2017-11-18T06:41:08.266Z,3.99
2017-11-18T06:42:16.699Z,3.99
2017-11-18T06:43:25.267Z,3.99
2017-11-18T06:44:33.813Z,3.99
2017-11-18T06:45:42.362Z,4.00
2017-11-18T06:46:51.440Z,3.99
2017-11-18T06:47:59.499Z,3.99
2017-11-18T06:49:08.001Z,4.00
2017-11-18T06:50:16.552Z,4.00
2017-11-18T06:51:25.132Z,4.00
2017-11-18T06:52:33.647Z,4.00
2017-11-18T06:53:42.230Z,3.99
2017-11-18T06:54:50.834Z,3.99
2017-11-18T06:55:59.296Z,4.00
2017-11-18T06:57:08.451Z,4.00
2017-11-18T06:58:16.459Z,3.99
2017-11-18T06:59:24.965Z,4.00
2017-11-18T07:00:33.480Z,3.99
2017-11-18T07:01:42.416Z,4.00
2017-11-18T07:02:50.566Z,3.99
2017-11-18T07:03:59.088Z,4.00
2017-11-18T07:05:07.625Z,4.00
2017-11-18T07:06:16.384Z,4.00
2017-11-18T07:07:24.830Z,4.00
2017-11-18T07:08:33.909Z,4.00
2017-11-18T07:09:41.920Z,4.00
2017-11-18T07:10:50.512Z,4.00
2017-11-18T07:11:59.199Z,4.00
2017-11-18T07:13:07.525Z,4.00
2017-11-18T07:14:16.059Z,4.00
2017-11-18T07:15:24.642Z,4.00
2017-11-18T07:16:33.034Z,4.00
2017-11-18T07:17:41.641Z,4.00
2017-11-18T07:18:50.263Z,4.00
2017-11-18T07:19:58.767Z,4.00
2017-11-18T07:21:07.546Z,4.00
2017-11-18T07:22:16.066Z,4.00
2017-11-18T07:23:24.831Z,4.00
2017-11-18T07:24:32.827Z,4.00
2017-11-18T07:25:41.506Z,4.00
2017-11-18T07:26:49.878Z,4.00
2017-11-18T07:27:58.460Z,4.00
2017-11-18T07:29:06.965Z,4.00
2017-11-18T07:30:15.638Z,4.00
2017-11-18T07:31:24.139Z,4.00
2017-11-18T07:32:32.592Z,4.00
2017-11-18T07:33:41.254Z,4.00
2017-11-18T07:34:50.634Z,4.00
2017-11-18T07:35:58.179Z,4.00
2017-11-18T07:37:06.708Z,4.00
2017-11-18T07:38:15.513Z,4.00
2017-11-18T07:39:23.773Z,4.00
2017-11-18T07:40:32.318Z,4.00
2017-11-18T07:41:40.936Z,4.00
2017-11-18T07:42:50.341Z,4.00
2017-11-18T07:43:57.959Z,4.00
2017-11-18T07:45:06.559Z,4.00
2017-11-18T07:46:15.020Z,4.00
2017-11-18T07:47:23.644Z,4.00
2017-11-18T07:48:32.098Z,4.00
2017-11-18T07:49:40.707Z,4.00
2017-11-18T07:50:49.638Z,4.00
2017-11-18T07:51:57.676Z,4.00
2017-11-18T07:53:06.996Z,4.00
2017-11-18T07:54:14.771Z,4.00
2017-11-18T07:55:23.907Z,4.00
2017-11-18T07:56:32.341Z,4.00
2017-11-18T07:57:40.387Z,4.01
2017-11-18T07:58:48.956Z,4.01
2017-11-18T07:59:57.486Z,4.01
2017-11-18T08:01:06.130Z,4.00
2017-11-18T08:02:14.735Z,4.01
2017-11-18T08:03:23.568Z,4.01
2017-11-18T08:04:31.689Z,4.01
2017-11-18T08:05:40.870Z,4.01
2017-11-18T08:06:48.935Z,4.01
2017-11-18T08:07:57.311Z,4.01
2017-11-18T08:09:06.034Z,4.01
2017-11-18T08:10:15.093Z,4.01
2017-11-18T08:11:23.006Z,4.01
2017-11-18T08:12:31.626Z,4.01
2017-11-18T08:13:40.166Z,4.01
2017-11-18T08:14:48.688Z,4.01
2017-11-18T08:15:57.252Z,4.01
2017-11-18T08:17:05.884Z,4.01
2017-11-18T08:18:14.382Z,4.01
2017-11-18T08:19:23.292Z,4.01
2017-11-18T08:20:31.593Z,4.01
2017-11-18T08:21:40.095Z,4.01
2017-11-18T08:22:48.657Z,4.01
2017-11-18T08:23:57.328Z,4.02
2017-11-18T08:25:05.898Z,4.02
2017-11-18T08:26:14.502Z,4.02
2017-11-18T08:27:23.548Z,4.02
2017-11-18T08:28:31.542Z,4.02
2017-11-18T08:29:40.132Z,4.02
2017-11-18T08:30:48.840Z,4.03
2017-11-18T08:31:57.438Z,4.02
2017-11-18T08:33:05.847Z,4.03
2017-11-18T08:34:15.005Z,4.03
2017-11-18T08:35:23.066Z,4.03
2017-11-18T08:36:32.106Z,4.02
2017-11-18T08:37:40.378Z,4.02
2017-11-18T08:38:49.323Z,4.02
2017-11-18T08:39:57.399Z,4.02
2017-11-18T08:41:06.105Z,4.02
2017-11-18T08:42:14.637Z,4.02
2017-11-18T08:43:23.217Z,4.02
2017-11-18T08:44:31.768Z,4.02
2017-11-18T08:45:40.304Z,4.02
2017-11-18T08:46:49.046Z,4.02
2017-11-18T08:47:57.480Z,4.02
2017-11-18T08:49:06.927Z,4.02
2017-11-18T08:50:14.696Z,4.02
2017-11-18T08:51:23.712Z,4.02
2017-11-18T08:52:31.793Z,4.02
2017-11-18T08:53:40.495Z,4.02
2017-11-18T08:54:49.842Z,4.02
2017-11-18T08:55:58.047Z,4.02
2017-11-18T08:57:06.142Z,4.02
2017-11-18T08:58:14.702Z,4.02
2017-11-18T08:59:23.809Z,4.02
2017-11-18T09:00:33.477Z,4.02
2017-11-18T09:01:40.440Z,4.02
2017-11-18T09:02:49.160Z,4.02
2017-11-18T09:03:58.690Z,4.02
2017-11-18T09:05:06.184Z,4.02
2017-11-18T09:06:14.764Z,4.02
2017-11-18T09:07:23.323Z,4.02
2017-11-18T09:08:32.692Z,4.03
2017-11-18T09:09:40.506Z,4.03
2017-11-18T09:10:49.159Z,4.03
2017-11-18T09:11:57.662Z,4.03
2017-11-18T09:13:06.272Z,4.03
2017-11-18T09:14:14.884Z,4.03
2017-11-18T09:15:23.505Z,4.03
2017-11-18T09:16:32.671Z,4.04
2017-11-18T09:17:40.694Z,4.04
2017-11-18T09:18:49.845Z,4.03
2017-11-18T09:19:58.016Z,4.04
2017-11-18T09:21:07.180Z,4.04
2017-11-18T09:22:15.202Z,4.04
2017-11-18T09:23:23.801Z,4.04
2017-11-18T09:24:32.458Z,4.04
2017-11-18T09:25:41.390Z,4.04
2017-11-18T09:26:49.774Z,4.04
2017-11-18T09:27:58.360Z,4.04
2017-11-18T09:29:07.099Z,4.04
2017-11-18T09:30:15.657Z,4.04
2017-11-18T09:31:25.117Z,4.04
2017-11-18T09:32:33.068Z,4.04
2017-11-18T09:33:41.701Z,4.04
2017-11-18T09:34:50.794Z,4.04
2017-11-18T09:35:58.982Z,4.04
2017-11-18T09:37:07.739Z,4.04
2017-11-18T09:38:16.436Z,4.04
2017-11-18T09:39:26.524Z,4.04
2017-11-18T09:40:34.643Z,4.04
2017-11-18T09:41:42.306Z,4.04
2017-11-18T09:42:51.100Z,4.04
2017-11-18T09:43:59.710Z,4.04
2017-11-18T09:45:08.403Z,4.04
2017-11-18T09:46:17.000Z,4.04
2017-11-18T09:47:25.652Z,4.04
2017-11-18T09:48:34.366Z,4.04
2017-11-18T09:49:43.026Z,4.04
2017-11-18T09:50:52.401Z,4.04
2017-11-18T09:52:00.368Z,4.04
2017-11-18T09:53:09.166Z,4.04
2017-11-18T09:54:17.865Z,4.04
2017-11-18T09:55:26.441Z,4.04
2017-11-18T09:56:35.183Z,4.04
2017-11-18T09:57:43.821Z,4.04
2017-11-18T09:58:52.702Z,4.04
2017-11-18T10:00:01.222Z,4.04
2017-11-18T10:01:10.322Z,4.04
2017-11-18T10:02:18.764Z,4.04
2017-11-18T10:03:27.475Z,4.04
2017-11-18T10:04:36.015Z,4.04
2017-11-18T10:05:44.728Z,4.04
2017-11-18T10:06:53.614Z,4.04
2017-11-18T10:08:02.219Z,4.04
2017-11-18T10:09:11.367Z,4.04
2017-11-18T10:10:19.499Z,4.04
2017-11-18T10:11:28.531Z,4.04
2017-11-18T10:12:37.060Z,4.04
2017-11-18T10:13:45.624Z,4.04
2017-11-18T10:14:54.486Z,4.04
2017-11-18T10:16:03.022Z,4.04
2017-11-18T10:17:12.849Z,4.04
2017-11-18T10:18:20.454Z,4.04
2017-11-18T10:19:29.666Z,4.04
2017-11-18T10:20:37.891Z,4.04
2017-11-18T10:21:46.590Z,4.04
2017-11-18T10:22:55.806Z,4.04
2017-11-18T10:24:04.517Z,4.04
2017-11-18T10:25:12.725Z,4.04
2017-11-18T10:26:21.437Z,4.04
2017-11-18T10:27:30.416Z,4.04
2017-11-18T10:28:38.950Z,4.04
2017-11-18T10:29:47.659Z,4.04
2017-11-18T10:30:56.903Z,4.04
2017-11-18T10:32:05.264Z,4.04
2017-11-18T10:33:14.439Z,4.04
2017-11-18T10:34:22.433Z,4.04
2017-11-18T10:35:31.245Z,4.04
2017-11-18T10:36:39.866Z,4.04
2017-11-18T10:37:48.854Z,4.04
2017-11-18T10:38:57.376Z,4.04
2017-11-18T10:40:06.135Z,4.04
2017-11-18T10:41:14.844Z,4.04
2017-11-18T10:42:23.828Z,4.04
2017-11-18T10:43:32.205Z,4.04
2017-11-18T10:44:40.908Z,4.05
2017-11-18T10:45:49.624Z,4.05
2017-11-18T10:46:58.433Z,4.05
2017-11-18T10:48:07.097Z,4.05
2017-11-18T10:49:15.864Z,4.05
2017-11-18T10:50:24.528Z,4.05
2017-11-18T10:51:33.291Z,4.06
2017-11-18T10:52:42.500Z,4.05
2017-11-18T10:53:50.898Z,4.06
2017-11-18T10:54:59.512Z,4.06
2017-11-18T10:56:08.225Z,4.06
2017-11-18T10:57:17.039Z,4.07
2017-11-18T10:58:25.782Z,4.06
2017-11-18T10:59:34.512Z,4.05
2017-11-18T11:00:43.298Z,4.06
2017-11-18T11:01:51.993Z,4.06
2017-11-18T11:03:00.837Z,4.05
2017-11-18T11:04:09.541Z,4.06
2017-11-18T11:05:18.833Z,4.05
2017-11-18T11:06:27.208Z,4.06
2017-11-18T11:07:36.128Z,4.06
2017-11-18T11:08:44.672Z,4.06
2017-11-18T11:09:53.474Z,4.06
2017-11-18T11:11:02.295Z,4.06
2017-11-18T11:12:11.104Z,4.06
2017-11-18T11:13:20.167Z,4.06
2017-11-18T11:14:28.797Z,4.06
2017-11-18T11:15:37.545Z,4.06
2017-11-18T11:16:46.426Z,4.06
2017-11-18T11:17:55.271Z,4.06
2017-11-18T11:19:04.054Z,4.06
2017-11-18T11:20:12.800Z,4.06
2017-11-18T11:21:21.712Z,4.06
2017-11-18T11:22:30.489Z,4.06
2017-11-18T11:23:39.863Z,4.06
2017-11-18T11:24:48.204Z,4.06
2017-11-18T11:25:57.241Z,4.06
2017-11-18T11:27:05.954Z,4.06
2017-11-18T11:28:14.821Z,4.06
2017-11-18T11:29:23.662Z,4.06
2017-11-18T11:30:32.729Z,4.06
2017-11-18T11:31:41.446Z,4.06
2017-11-18T11:32:50.397Z,4.06
2017-11-18T11:33:59.202Z,4.06
2017-11-18T11:35:08.549Z,4.06
2017-11-18T11:36:17.585Z,4.06
2017-11-18T11:37:26.022Z,4.06
2017-11-18T11:38:34.917Z,4.07
2017-11-18T11:39:43.572Z,4.07
2017-11-18T11:40:52.493Z,4.07
2017-11-18T11:42:01.502Z,4.07
2017-11-18T11:43:10.213Z,4.07
2017-11-18T11:44:19.047Z,4.07
2017-11-18T11:45:28.029Z,4.07
2017-11-18T11:46:36.814Z,4.07
2017-11-18T11:47:46.158Z,4.07
2017-11-18T11:48:54.612Z,4.07
2017-11-18T11:50:03.291Z,4.07
2017-11-18T11:51:12.175Z,4.07
2017-11-18T11:52:20.921Z,4.06
2017-11-18T11:53:29.693Z,4.06
2017-11-18T11:54:39.257Z,4.06
2017-11-18T11:55:47.428Z,4.06
2017-11-18T11:56:56.091Z,4.06
2017-11-18T11:58:04.883Z,4.06
2017-11-18T11:59:13.711Z,4.07
2017-11-18T12:00:22.508Z,4.06
2017-11-18T12:01:31.391Z,4.06
2017-11-18T12:02:40.201Z,4.06
2017-11-18T12:03:48.910Z,4.06
2017-11-18T12:04:58.194Z,4.06
2017-11-18T12:06:06.976Z,4.06
2017-11-18T12:07:15.252Z,4.07
2017-11-18T12:08:23.999Z,4.06
2017-11-18T12:09:33.742Z,4.06
2017-11-18T12:10:41.591Z,4.06
2017-11-18T12:11:50.241Z,4.06
2017-11-18T12:12:58.991Z,4.06
2017-11-18T12:14:07.850Z,4.05
2017-11-18T12:15:16.576Z,4.06
2017-11-18T12:16:25.281Z,4.06
2017-11-18T12:17:34.185Z,4.06
2017-11-18T12:18:43.433Z,4.06
2017-11-18T12:19:51.809Z,4.06
2017-11-18T12:21:00.414Z,4.06
2017-11-18T12:22:09.096Z,4.06
2017-11-18T12:23:17.843Z,4.06
2017-11-18T12:24:26.714Z,4.06
2017-11-18T12:25:35.384Z,4.06
2017-11-18T12:26:44.675Z,4.06
2017-11-18T12:27:52.905Z,4.06
2017-11-18T12:29:01.608Z,4.06
2017-11-18T12:30:10.454Z,4.06
2017-11-18T12:31:19.134Z,4.06
2017-11-18T12:32:27.888Z,4.06
2017-11-18T12:33:36.605Z,4.06
2017-11-18T12:34:45.556Z,4.06
2017-11-18T12:35:54.190Z,4.06
2017-11-18T12:37:02.978Z,4.06
2017-11-18T12:38:11.720Z,4.06
2017-11-18T12:39:20.368Z,4.07
2017-11-18T12:40:29.117Z,4.06
2017-11-18T12:41:38.051Z,4.06
2017-11-18T12:42:46.668Z,4.06
2017-11-18T12:43:55.362Z,4.06
2017-11-18T12:45:04.191Z,4.06
2017-11-18T12:46:13.003Z,4.06
2017-11-18T12:47:21.670Z,4.06
2017-11-18T12:48:30.393Z,4.06
2017-11-18T12:49:39.135Z,4.06
2017-11-18T12:50:47.893Z,4.06
2017-11-18T12:51:57.151Z,4.06
2017-11-18T12:53:05.343Z,4.06
2017-11-18T12:54:14.569Z,4.06
2017-11-18T12:55:22.991Z,4.06
2017-11-18T12:56:31.922Z,4.06
2017-11-18T12:57:40.136Z,4.06
2017-11-18T12:58:48.998Z,4.05
2017-11-18T12:59:57.640Z,4.05
2017-11-18T13:01:06.370Z,4.05
2017-11-18T13:02:15.132Z,4.05
2017-11-18T13:03:23.770Z,4.06
2017-11-18T13:04:32.499Z,4.05
2017-11-18T13:05:41.865Z,4.05
2017-11-18T13:06:49.977Z,4.06
2017-11-18T13:07:58.578Z,4.05
2017-11-18T13:09:07.330Z,4.05
2017-11-18T13:10:15.970Z,4.06
2017-11-18T13:11:24.785Z,4.05
2017-11-18T13:12:33.865Z,4.05
2017-11-18T13:13:42.111Z,4.05
2017-11-18T13:14:50.781Z,4.05
2017-11-18T13:15:59.588Z,4.05
2017-11-18T13:17:08.792Z,4.05
2017-11-18T13:18:16.875Z,4.05
2017-11-18T13:19:25.639Z,4.05
2017-11-18T13:20:34.507Z,4.05
2017-11-18T13:21:43.154Z,4.05
2017-11-18T13:22:52.579Z,4.05
2017-11-18T13:24:00.391Z,4.05
2017-11-18T13:25:09.594Z,4.06
2017-11-18T13:26:18.043Z,4.06
2017-11-18T13:27:26.577Z,4.06
2017-11-18T13:28:35.797Z,4.06
2017-11-18T13:29:44.020Z,4.06
2017-11-18T13:30:52.604Z,4.05
2017-11-18T13:33:11.611Z,4.05
2017-11-18T13:34:19.762Z,4.06
2017-11-18T13:35:28.005Z,4.06
2017-11-18T13:36:36.193Z,4.06
2017-11-18T13:37:44.916Z,4.06
2017-11-18T13:38:53.519Z,4.06
2017-11-18T13:40:02.662Z,4.06
2017-11-18T13:41:10.934Z,4.05
2017-11-18T13:42:20.307Z,4.05
2017-11-18T13:43:28.282Z,4.05
2017-11-18T13:44:37.402Z,4.05
2017-11-18T13:45:45.635Z,4.05
2017-11-18T13:46:56.100Z,4.05
2017-11-18T13:49:12.346Z,4.05
2017-11-18T13:50:21.031Z,4.05
2017-11-18T13:51:29.200Z,4.05
2017-11-18T13:52:37.858Z,4.05
2017-11-18T13:53:46.660Z,4.05
2017-11-18T13:54:56.703Z,4.05
2017-11-18T13:56:03.900Z,4.05
2017-11-18T13:57:12.685Z,4.05
2017-11-18T13:58:21.157Z,4.05
2017-11-18T13:59:29.978Z,4.05
2017-11-18T14:00:38.616Z,4.05
2017-11-18T14:01:47.240Z,4.05
2017-11-18T14:02:56.969Z,4.05
2017-11-18T14:04:04.583Z,4.05
2017-11-18T14:05:13.352Z,4.05
2017-11-18T14:06:22.069Z,4.05
2017-11-18T14:07:31.468Z,4.05
2017-11-18T14:08:39.845Z,4.05
2017-11-18T14:09:48.169Z,4.05
2017-11-18T14:10:57.397Z,4.05
2017-11-18T14:12:05.956Z,4.05
2017-11-18T14:13:14.154Z,4.05
2017-11-18T14:14:22.842Z,4.05
2017-11-18T14:15:32.064Z,4.05
2017-11-18T14:16:40.256Z,4.05
2017-11-18T14:17:49.053Z,4.05
2017-11-18T14:18:57.660Z,4.05
2017-11-18T14:20:06.201Z,4.05
2017-11-18T14:21:15.425Z,4.05
2017-11-18T14:22:24.430Z,4.05
2017-11-18T14:23:32.607Z,4.05
2017-11-18T14:24:41.047Z,4.05
2017-11-18T14:25:49.808Z,4.05
2017-11-18T14:26:58.363Z,4.05
2017-11-18T14:28:08.434Z,4.05
2017-11-18T14:29:16.188Z,4.06
2017-11-18T14:30:24.493Z,4.05
2017-11-18T14:31:33.618Z,4.05
2017-11-18T14:32:42.063Z,4.05
2017-11-18T14:33:51.629Z,4.05
2017-11-18T14:34:59.380Z,4.06
2017-11-18T14:36:07.852Z,4.06
2017-11-18T14:37:17.192Z,4.05
2017-11-18T14:38:25.279Z,4.06
2017-11-18T14:41:23.747Z,2.05
2017-11-18T14:49:35.300Z,2.07
2017-11-18T14:50:35.178Z,2.07
2017-11-18T16:03:58.329Z,2.05
2017-11-18T16:18:05.400Z,2.06
2017-11-18T16:20:24.950Z,4.05
2017-11-18T16:21:31.520Z,4.05
2017-11-18T16:22:36.966Z,4.05
2017-11-18T16:23:43.090Z,4.05
2017-11-18T16:24:49.516Z,4.05
2017-11-18T16:25:56.437Z,4.05
2017-11-18T16:27:01.076Z,4.05
2017-11-18T16:28:09.340Z,4.05
2017-11-18T16:29:13.561Z,4.05
2017-11-18T16:30:19.614Z,4.05
2017-11-18T16:31:25.717Z,4.05
2017-11-18T16:32:32.427Z,4.05
2017-11-18T16:33:38.068Z,4.05
2017-11-18T16:34:44.467Z,4.05
2017-11-18T16:35:50.893Z,4.05
2017-11-18T16:36:56.800Z,4.05
2017-11-18T16:38:02.844Z,4.05
2017-11-18T16:39:09.388Z,4.05
2017-11-18T16:40:15.073Z,4.05
2017-11-18T16:41:21.267Z,4.05
2017-11-18T16:42:27.473Z,4.05
2017-11-18T16:43:33.733Z,4.05
2017-11-18T16:44:40.581Z,4.05
2017-11-18T16:45:45.948Z,4.05
2017-11-18T16:46:52.356Z,4.05
2017-11-18T16:47:58.715Z,4.05
2017-11-18T16:49:04.461Z,4.05
2017-11-18T16:50:11.196Z,4.05